Time;durP1;ratioP1;P1;durP2;ratioP2;P2;SDS_P1;SDS_P2;PMS_P1;PMS_P2;Temp;Humidity;BMP_temperature;BMP_pressure;BME280_temperature;BME280_humidity;BME280_pressure;Samples;Min_cycle;Max_cycle;Signal;HPM_P1;HPM_P2
2021/06/07 00:01:42;;;;;;;33.13;29.77;;;19.80;99.90;;;;;;5062668;28;20554;-52
2021/06/07 00:04:09;;;;;;;33.40;30.07;;;19.80;99.90;;;;;;5070389;28;20867;-53
2021/06/07 00:06:35;;;;;;;35.07;31.57;;;19.90;99.90;;;;;;5069080;28;20415;-53
2021/06/07 00:09:05;;;;;;;32.60;29.30;;;19.90;99.90;;;;;;5069699;28;20487;-52
2021/06/07 00:11:30;;;;;;;34.77;31.17;;;19.90;99.90;;;;;;5069591;28;20430;-51
2021/06/07 00:13:56;;;;;;;33.53;30.23;;;19.90;99.90;;;;;;5068673;28;20431;-55
2021/06/07 00:16:21;;;;;;;32.40;29.13;;;19.90;99.90;;;;;;5069277;28;20180;-52
2021/06/07 00:18:47;;;;;;;33.47;30.07;;;19.90;99.90;;;;;;5069017;28;20183;-52
2021/06/07 00:21:20;;;;;;;33.97;30.27;;;19.80;99.90;;;;;;5068649;28;20196;-49
2021/06/07 00:23:47;;;;;;;33.03;29.80;;;19.90;99.90;;;;;;5068404;28;20199;-51
2021/06/07 00:26:13;;;;;;;34.13;30.30;;;19.90;99.90;;;;;;5068435;28;20942;-52
2021/06/07 00:28:39;;;;;;;33.57;30.13;;;19.90;99.90;;;;;;5069485;28;20431;-51
2021/06/07 00:31:07;;;;;;;34.57;31.07;;;20.00;99.90;;;;;;5068762;28;20430;-50
2021/06/07 00:33:33;;;;;;;34.30;30.80;;;19.90;99.90;;;;;;5069098;28;20407;-52
2021/06/07 00:35:59;;;;;;;34.33;30.87;;;20.00;99.90;;;;;;5069868;28;20407;-54
2021/06/07 00:38:25;;;;;;;35.43;32.00;;;19.90;99.90;;;;;;5068454;28;20522;-50
2021/06/07 00:40:51;;;;;;;33.80;30.20;;;19.90;99.90;;;;;;5069197;28;20485;-49
2021/06/07 00:43:16;;;;;;;35.07;31.47;;;19.90;99.70;;;;;;5067766;28;20204;-51
2021/06/07 00:45:42;;;;;;;34.80;31.30;;;20.00;98.40;;;;;;5068915;28;20181;-51
2021/06/07 00:48:09;;;;;;;32.57;29.27;;;20.00;96.20;;;;;;5067477;28;20423;-56
2021/06/07 00:50:39;;;;;;;34.50;30.83;;;20.00;94.00;;;;;;5069030;28;20651;-48
2021/06/07 00:53:07;;;;;;;33.57;29.97;;;20.00;93.50;;;;;;5069509;28;20453;-50
2021/06/07 00:55:39;;;;;;;34.33;30.87;;;19.90;93.00;;;;;;5068871;28;20439;-52
2021/06/07 00:58:06;;;;;;;32.13;28.83;;;19.90;93.00;;;;;;5064930;28;20470;-52
2021/06/07 01:00:33;;;;;;;34.73;31.33;;;19.80;93.30;;;;;;5066893;28;20648;-54
2021/06/07 01:03:00;;;;;;;32.90;29.40;;;19.70;94.50;;;;;;5067956;28;20555;-52
2021/06/07 01:05:27;;;;;;;31.47;28.17;;;19.80;94.20;;;;;;5072927;28;20429;-52
2021/06/07 01:07:53;;;;;;;34.70;30.87;;;19.80;93.30;;;;;;5072519;28;20774;-51
2021/06/07 01:10:20;;;;;;;34.63;31.00;;;19.70;91.50;;;;;;5071929;28;20426;-51
2021/06/07 01:12:46;;;;;;;33.60;30.10;;;19.70;92.70;;;;;;5072023;28;20427;-51
2021/06/07 01:15:13;;;;;;;33.00;29.47;;;19.70;92.00;;;;;;5066876;28;20484;-52
2021/06/07 01:17:39;;;;;;;31.90;28.60;;;19.80;91.10;;;;;;5072455;28;20516;-52
2021/06/07 01:20:07;;;;;;;31.73;28.43;;;19.80;88.70;;;;;;5072266;28;21210;-51
2021/06/07 01:22:34;;;;;;;34.00;30.30;;;19.70;90.30;;;;;;5071404;28;20671;-53
2021/06/07 01:24:59;;;;;;;33.20;29.80;;;19.70;90.90;;;;;;5072171;28;20468;-50
2021/06/07 01:27:25;;;;;;;34.00;30.50;;;19.70;89.70;;;;;;5070702;28;20534;-50
2021/06/07 01:29:51;;;;;;;31.23;27.90;;;19.70;89.10;;;;;;5072459;28;20197;-52
2021/06/07 01:32:17;;;;;;;34.97;31.37;;;19.70;85.40;;;;;;5069041;28;20216;-52
2021/06/07 01:34:43;;;;;;;34.70;31.20;;;19.70;85.90;;;;;;5072822;28;20455;-52
2021/06/07 01:37:09;;;;;;;33.93;30.20;;;19.70;87.20;;;;;;5068148;28;20200;-52
2021/06/07 01:39:35;;;;;;;34.00;30.37;;;19.70;88.30;;;;;;5072204;28;20424;-52
2021/06/07 01:42:00;;;;;;;33.67;30.20;;;19.70;84.80;;;;;;5071830;28;20517;-51
2021/06/07 01:44:26;;;;;;;34.93;31.20;;;19.70;83.30;;;;;;5071397;28;20631;-52
2021/06/07 01:46:52;;;;;;;33.73;30.23;;;19.70;77.10;;;;;;5071472;28;20212;-54
2021/06/07 01:49:17;;;;;;;35.07;30.10;;;19.60;80.80;;;;;;5071167;28;20193;-52
2021/06/07 01:51:43;;;;;;;33.13;29.57;;;19.50;87.30;;;;;;5071371;28;20185;-52
2021/06/07 01:54:09;;;;;;;34.33;30.63;;;19.50;83.70;;;;;;5071857;28;20185;-52
2021/06/07 01:56:35;;;;;;;36.83;31.33;;;19.50;88.20;;;;;;5070052;28;20671;-52
2021/06/07 01:59:01;;;;;;;36.37;32.57;;;19.50;90.10;;;;;;5070850;28;20185;-49
2021/06/07 02:01:28;;;;;;;35.50;31.90;;;19.50;87.70;;;;;;5071616;28;20435;-49
2021/06/07 02:03:53;;;;;;;34.47;30.80;;;19.50;83.80;;;;;;5071079;28;20812;-53
2021/06/07 02:06:22;;;;;;;34.03;30.43;;;19.50;81.70;;;;;;5068763;28;20440;-55
2021/06/07 02:08:48;;;;;;;33.57;29.97;;;19.50;81.70;;;;;;5065316;28;20262;-53
2021/06/07 02:11:25;;;;;;;36.40;32.47;;;19.40;88.60;;;;;;5070500;28;20438;-50
2021/06/07 02:13:53;;;;;;;34.37;30.87;;;19.40;86.10;;;;;;5068812;28;21347;-51
2021/06/07 02:16:21;;;;;;;36.23;31.07;;;19.30;91.40;;;;;;5069537;28;20449;-53
2021/06/07 02:18:47;;;;;;;35.23;31.50;;;19.30;92.00;;;;;;5067444;28;20447;-51
2021/06/07 02:21:15;;;;;;;37.30;33.30;;;19.30;91.40;;;;;;5071126;28;20889;-52
2021/06/07 02:23:40;;;;;;;34.17;30.50;;;19.20;93.90;;;;;;5070210;28;20571;-50
2021/06/07 02:26:07;;;;;;;36.23;32.30;;;19.20;94.20;;;;;;5070966;28;20512;-51
2021/06/07 02:28:33;;;;;;;37.73;33.50;;;19.20;94.50;;;;;;5069497;28;20190;-50
2021/06/07 02:31:00;;;;;;;37.90;32.77;;;19.10;97.90;;;;;;5071340;28;20415;-50
2021/06/07 02:33:26;;;;;;;36.10;31.80;;;19.10;99.90;;;;;;5070432;28;20426;-53
2021/06/07 02:35:52;;;;;;;36.00;30.10;;;19.00;99.90;;;;;;5071099;28;20885;-48
2021/06/07 02:38:18;;;;;;;35.40;31.70;;;19.00;99.90;;;;;;5069976;28;20470;-49
2021/06/07 02:40:49;;;;;;;37.53;33.43;;;19.10;99.90;;;;;;5070267;28;20200;-53
2021/06/07 02:43:15;;;;;;;34.83;30.43;;;19.10;99.90;;;;;;5070776;28;20509;-54
2021/06/07 02:45:41;;;;;;;35.83;32.10;;;19.00;99.30;;;;;;5070137;28;20473;-48
2021/06/07 02:48:07;;;;;;;38.07;33.20;;;19.00;99.90;;;;;;5070631;28;20894;-53
2021/06/07 02:50:38;;;;;;;37.57;32.87;;;18.90;99.90;;;;;;5070239;28;20440;-52
2021/06/07 02:53:05;;;;;;;35.60;31.73;;;18.90;99.90;;;;;;5069038;28;20478;-55
2021/06/07 02:55:37;;;;;;;37.53;32.90;;;18.90;99.90;;;;;;5069886;28;20898;-51
2021/06/07 02:58:03;;;;;;;39.00;32.30;;;18.90;99.90;;;;;;5068567;28;20447;-55
2021/06/07 03:00:35;;;;;;;37.00;31.90;;;18.90;99.90;;;;;;5065125;28;20820;-49
2021/06/07 03:03:03;;;;;;;34.30;30.50;;;18.90;99.90;;;;;;5070366;28;20554;-48
2021/06/07 03:05:29;;;;;;;34.73;31.13;;;18.90;99.90;;;;;;5069993;28;20870;-48
2021/06/07 03:07:55;;;;;;;35.77;31.90;;;18.90;99.90;;;;;;5069551;28;20424;-51
2021/06/07 03:10:21;;;;;;;36.80;32.03;;;18.90;99.90;;;;;;5069369;28;20438;-52
2021/06/07 03:12:47;;;;;;;38.40;32.50;;;18.90;99.90;;;;;;5069442;28;20187;-50
2021/06/07 03:15:16;;;;;;;38.83;31.60;;;19.00;99.90;;;;;;5070231;28;20427;-49
2021/06/07 03:17:43;;;;;;;35.30;31.60;;;19.00;99.90;;;;;;5070693;28;20182;-50
2021/06/07 03:20:11;;;;;;;36.87;32.80;;;19.00;99.90;;;;;;5069606;28;20821;-52
2021/06/07 03:22:37;;;;;;;36.33;32.43;;;19.00;99.90;;;;;;5069880;28;20431;-53
2021/06/07 03:25:04;;;;;;;37.23;32.00;;;19.00;99.90;;;;;;5068146;28;20444;-51
2021/06/07 03:27:30;;;;;;;36.43;32.43;;;19.10;99.90;;;;;;5070101;28;20693;-53
2021/06/07 03:29:55;;;;;;;37.00;33.00;;;19.00;99.90;;;;;;5070096;28;20518;-52
2021/06/07 03:32:21;;;;;;;35.87;31.60;;;19.00;99.90;;;;;;5069847;28;20181;-51
2021/06/07 03:34:47;;;;;;;36.97;31.70;;;19.00;99.90;;;;;;5069425;28;20220;-53
2021/06/07 03:37:13;;;;;;;33.13;29.63;;;19.00;99.90;;;;;;5069525;28;20198;-51
2021/06/07 03:39:38;;;;;;;35.57;31.70;;;19.00;99.90;;;;;;5069843;28;20662;-52
2021/06/07 03:42:05;;;;;;;36.47;32.40;;;19.10;99.90;;;;;;5069062;28;20538;-50
2021/06/07 03:44:30;;;;;;;35.43;31.60;;;19.10;99.90;;;;;;5070250;28;20206;-50
2021/06/07 03:46:56;;;;;;;36.80;31.90;;;19.20;99.80;;;;;;5068814;28;20451;-49
2021/06/07 03:49:21;;;;;;;34.17;30.60;;;19.20;96.90;;;;;;5069983;28;20173;-52
2021/06/07 03:51:47;;;;;;;34.33;30.73;;;19.20;94.60;;;;;;5068960;28;20189;-51
2021/06/07 03:54:13;;;;;;;36.63;32.70;;;19.20;95.30;;;;;;5069317;28;20193;-53
2021/06/07 03:56:38;;;;;;;33.40;29.87;;;19.20;97.30;;;;;;5065008;28;20225;-48
2021/06/07 03:59:04;;;;;;;36.57;31.40;;;19.20;94.40;;;;;;5064944;28;20233;-51
2021/06/07 04:01:30;;;;;;;35.73;30.40;;;19.20;96.00;;;;;;5066551;28;20270;-49
2021/06/07 04:03:56;;;;;;;33.20;29.60;;;19.20;94.90;;;;;;5068854;28;20341;-49
2021/06/07 04:06:22;;;;;;;34.73;31.00;;;19.20;95.60;;;;;;5065417;28;20284;-55
2021/06/07 04:08:49;;;;;;;35.23;31.10;;;19.20;94.60;;;;;;5061407;28;20422;-53
2021/06/07 04:11:15;;;;;;;33.17;29.80;;;19.20;91.50;;;;;;5058995;28;20771;-52
2021/06/07 04:13:40;;;;;;;34.23;30.67;;;19.30;88.10;;;;;;5059771;28;20499;-52
2021/06/07 04:16:06;;;;;;;35.23;30.87;;;19.30;87.30;;;;;;5059830;28;20180;-52
2021/06/07 04:18:31;;;;;;;35.50;31.80;;;19.40;75.00;;;;;;5058957;28;20199;-52
2021/06/07 04:20:57;;;;;;;34.77;31.07;;;19.40;80.50;;;;;;5060257;28;20189;-52
2021/06/07 04:23:23;;;;;;;35.83;31.93;;;19.40;80.90;;;;;;5060865;28;20321;-54
2021/06/07 04:25:49;;;;;;;33.60;30.00;;;19.40;73.60;;;;;;5060118;28;20193;-53
2021/06/07 04:28:15;;;;;;;36.17;31.90;;;19.40;70.10;;;;;;5057167;28;20323;-50
2021/06/07 04:30:40;;;;;;;34.23;30.70;;;19.60;59.30;;;;;;5059837;28;20524;-54
2021/06/07 04:33:06;;;;;;;36.20;31.57;;;19.60;55.90;;;;;;5058425;28;20198;-52
2021/06/07 04:35:31;;;;;;;34.43;30.70;;;19.60;53.90;;;;;;5059553;28;20189;-54
2021/06/07 04:37:57;;;;;;;32.93;29.30;;;19.60;52.20;;;;;;5058940;28;20216;-51
2021/06/07 04:40:28;;;;;;;32.80;29.27;;;19.60;44.10;;;;;;5059114;28;20290;-51
2021/06/07 04:42:54;;;;;;;32.50;28.80;;;19.70;47.60;;;;;;5059736;28;21246;-54
2021/06/07 04:45:22;;;;;;;31.70;28.40;;;19.70;42.30;;;;;;5058945;28;20478;-52
2021/06/07 04:47:48;;;;;;;32.07;28.67;;;19.80;39.70;;;;;;5059342;28;20430;-54
2021/06/07 04:50:16;;;;;;;34.20;30.80;;;19.90;99.90;;;;;;5058633;28;20443;-53
2021/06/07 04:52:59;;;;;;;31.30;28.10;;;19.90;99.90;;;;;;5059088;28;20469;-52
2021/06/07 04:55:36;;;;;;;33.67;30.07;;;19.90;99.90;;;;;;5059242;28;20449;-53
2021/06/07 04:58:05;;;;;;;32.90;28.67;;;19.90;99.90;;;;;;5058956;28;20488;-53
2021/06/07 05:00:31;;;;;;;30.87;27.53;;;20.00;99.90;;;;;;5057980;28;21373;-57
2021/06/07 05:02:57;;;;;;;32.90;29.50;;;20.10;99.90;;;;;;5059801;28;20469;-54
2021/06/07 05:05:22;;;;;;;30.23;27.00;;;20.20;99.90;;;;;;5066881;28;20475;-52
2021/06/07 05:07:48;;;;;;;31.27;27.87;;;20.30;99.90;;;;;;5066096;28;20184;-55
2021/06/07 05:10:14;;;;;;;32.27;28.87;;;20.40;99.90;;;;;;5068304;28;20204;-50
2021/06/07 05:12:40;;;;;;;30.30;27.00;;;20.40;99.90;;;;;;5067363;28;20310;-54
2021/06/07 05:15:07;;;;;;;30.00;26.90;;;20.50;99.90;;;;;;5068634;28;20506;-50
2021/06/07 05:17:33;;;;;;;31.00;27.90;;;20.50;99.90;;;;;;5068450;28;20194;-51
2021/06/07 05:19:59;;;;;;;31.93;28.73;;;20.50;99.90;;;;;;5067927;28;20428;-49
2021/06/07 05:22:25;;;;;;;30.17;26.97;;;20.50;99.90;;;;;;5066681;28;20185;-53
2021/06/07 05:24:50;;;;;;;29.40;26.57;;;20.60;99.90;;;;;;5067474;28;20215;-50
2021/06/07 05:27:16;;;;;;;28.40;25.57;;;20.70;99.90;;;;;;5067633;28;20908;-53
2021/06/07 05:29:41;;;;;;;27.83;25.03;;;20.70;99.90;;;;;;5068140;28;20193;-50
2021/06/07 05:32:07;;;;;;;30.17;27.20;;;20.80;99.90;;;;;;5066570;28;20277;-54
2021/06/07 05:34:33;;;;;;;29.07;26.27;;;20.90;99.90;;;;;;5067260;28;20596;-51
2021/06/07 05:36:58;;;;;;;27.70;25.00;;;21.00;99.90;;;;;;5067895;28;20200;-51
2021/06/07 05:39:24;;;;;;;28.30;25.40;;;21.00;99.90;;;;;;5068208;28;20189;-53
2021/06/07 05:41:49;;;;;;;27.33;24.67;;;21.10;99.90;;;;;;5068005;28;20600;-54
2021/06/07 05:44:15;;;;;;;30.77;27.57;;;21.20;99.90;;;;;;5067348;28;20250;-55
2021/06/07 05:46:41;;;;;;;29.60;26.70;;;21.30;99.90;;;;;;5067178;28;20541;-51
2021/06/07 05:49:06;;;;;;;27.97;24.73;;;21.40;99.90;;;;;;5066940;28;20238;-50
2021/06/07 05:51:32;;;;;;;28.20;25.30;;;21.40;99.90;;;;;;5068405;28;20188;-54
2021/06/07 05:53:58;;;;;;;28.50;25.70;;;21.40;99.90;;;;;;5070797;28;20196;-53
2021/06/07 05:56:23;;;;;;;27.80;25.20;;;21.30;99.90;;;;;;5071100;28;20467;-51
2021/06/07 05:58:50;;;;;;;26.57;24.00;;;21.30;99.90;;;;;;5071249;28;20314;-51
2021/06/07 06:01:15;;;;;;;25.80;23.50;;;21.30;99.90;;;;;;5071320;28;20581;-52
2021/06/07 06:03:41;;;;;;;25.60;23.20;;;21.30;99.90;;;;;;5070479;28;20474;-53
2021/06/07 06:06:06;;;;;;;26.47;24.07;;;21.30;99.90;;;;;;5071507;28;20576;-51
2021/06/07 06:08:32;;;;;;;27.30;24.13;;;21.30;99.90;;;;;;5069571;28;20550;-50
2021/06/07 06:10:58;;;;;;;26.97;24.47;;;21.50;99.90;;;;;;5064046;28;20602;-49
2021/06/07 06:13:23;;;;;;;27.53;24.90;;;21.50;99.90;;;;;;5070053;28;20185;-52
2021/06/07 06:15:49;;;;;;;27.17;24.60;;;21.60;99.90;;;;;;5069993;28;20276;-53
2021/06/07 06:18:14;;;;;;;26.93;24.33;;;21.70;99.90;;;;;;5071093;28;20593;-54
2021/06/07 06:20:40;;;;;;;27.97;25.10;;;21.70;99.90;;;;;;5071156;28;20200;-50
2021/06/07 06:23:05;;;;;;;24.77;22.47;;;21.80;99.90;;;;;;5071290;28;20209;-51
2021/06/07 06:25:31;;;;;;;27.50;24.77;;;21.90;99.90;;;;;;5070778;28;20195;-54
2021/06/07 06:27:58;;;;;;;27.40;24.80;;;21.70;99.90;;;;;;5070860;28;20904;-51
2021/06/07 06:30:27;;;;;;;27.63;24.93;;;21.60;99.90;;;;;;5070432;28;20640;-54
2021/06/07 06:32:56;;;;;;;25.23;22.83;;;21.70;99.90;;;;;;5069591;28;21012;-52
2021/06/07 06:35:23;;;;;;;26.90;24.40;;;21.70;99.90;;;;;;5070218;28;20431;-54
2021/06/07 06:37:49;;;;;;;27.03;24.43;;;21.70;99.90;;;;;;5069489;28;20482;-52
2021/06/07 06:40:24;;;;;;;25.40;22.80;;;21.60;99.90;;;;;;5069512;28;20446;-52
2021/06/07 06:42:51;;;;;;;25.10;22.80;;;21.70;99.90;;;;;;5069143;28;20183;-52
2021/06/07 06:45:18;;;;;;;25.10;22.70;;;21.70;99.90;;;;;;5070546;28;20420;-50
2021/06/07 06:47:44;;;;;;;25.77;23.37;;;21.80;99.90;;;;;;5070470;28;20421;-53
2021/06/07 06:50:11;;;;;;;27.33;24.87;;;22.00;99.90;;;;;;5070021;28;20418;-50
2021/06/07 06:52:37;;;;;;;26.77;24.27;;;22.10;99.90;;;;;;5068132;28;20450;-54
2021/06/07 06:55:04;;;;;;;26.03;23.43;;;22.20;99.90;;;;;;5070037;28;20873;-51
2021/06/07 06:57:30;;;;;;;26.70;23.93;;;22.30;99.90;;;;;;5064496;28;20426;-54
2021/06/07 06:59:55;;;;;;;25.87;23.47;;;22.40;99.90;;;;;;5068493;28;20466;-53
2021/06/07 07:02:21;;;;;;;26.37;23.87;;;22.40;99.90;;;;;;5068317;28;20193;-51
2021/06/07 07:04:46;;;;;;;25.53;23.13;;;22.50;99.90;;;;;;5068855;28;20675;-51
2021/06/07 07:07:12;;;;;;;26.13;23.77;;;22.60;99.90;;;;;;5067244;28;20528;-53
2021/06/07 07:09:38;;;;;;;25.30;22.77;;;22.60;99.90;;;;;;5069515;28;20647;-53
2021/06/07 07:12:05;;;;;;;27.07;24.63;;;22.80;99.90;;;;;;5068854;28;20661;-55
2021/06/07 07:14:31;;;;;;;27.27;24.60;;;22.80;99.90;;;;;;5064470;28;20425;-55
2021/06/07 07:16:56;;;;;;;25.67;23.27;;;22.80;99.90;;;;;;5069315;28;20516;-57
2021/06/07 07:19:22;;;;;;;26.27;23.77;;;22.70;99.90;;;;;;5069503;28;20265;-54
2021/06/07 07:21:47;;;;;;;25.23;22.67;;;22.80;99.90;;;;;;5068842;28;20855;-56
2021/06/07 07:24:13;;;;;;;27.53;24.60;;;23.00;99.90;;;;;;5068110;28;20228;-51
2021/06/07 07:26:38;;;;;;;26.23;23.87;;;23.20;99.90;;;;;;5068221;28;20276;-54
2021/06/07 07:29:04;;;;;;;26.40;23.67;;;23.40;99.90;;;;;;5068706;28;20185;-52
2021/06/07 07:31:30;;;;;;;24.07;21.77;;;23.60;99.90;;;;;;5069005;28;20188;-51
2021/06/07 07:33:55;;;;;;;26.07;23.57;;;23.80;99.90;;;;;;5068779;28;20623;-55
2021/06/07 07:36:21;;;;;;;25.30;22.87;;;23.70;99.90;;;;;;5068808;28;20195;-54
2021/06/07 07:38:46;;;;;;;25.33;23.00;;;23.70;99.90;;;;;;5069049;28;20223;-52
2021/06/07 07:41:12;;;;;;;25.33;23.03;;;23.80;99.90;;;;;;5068748;28;20217;-50
2021/06/07 07:43:39;;;;;;;24.63;22.37;;;23.90;99.90;;;;;;5068753;28;20295;-52
2021/06/07 07:46:04;;;;;;;24.50;22.47;;;23.80;99.90;;;;;;5068656;28;20423;-56
2021/06/07 07:48:30;;;;;;;25.60;23.40;;;23.90;99.90;;;;;;5068513;28;20511;-56
2021/06/07 07:50:56;;;;;;;25.53;23.00;;;23.90;99.90;;;;;;5062378;28;20261;-51
2021/06/07 07:53:23;;;;;;;24.30;22.20;;;24.20;99.90;;;;;;5068183;28;20988;-53
2021/06/07 07:55:51;;;;;;;24.90;22.60;;;24.30;99.90;;;;;;5068683;28;20173;-55
2021/06/07 07:58:16;;;;;;;26.77;24.23;;;24.30;99.90;;;;;;5068514;28;20793;-53
2021/06/07 08:00:42;;;;;;;24.70;22.50;;;24.30;99.90;;;;;;5066939;28;20463;-53
2021/06/07 08:03:08;;;;;;;25.33;23.13;;;24.40;99.90;;;;;;5068356;28;20263;-53
2021/06/07 08:05:35;;;;;;;26.17;23.87;;;24.40;99.80;;;;;;5068376;28;20194;-54
2021/06/07 08:08:02;;;;;;;25.03;22.73;;;24.50;99.20;;;;;;5068737;28;20427;-49
2021/06/07 08:10:27;;;;;;;24.67;22.37;;;24.70;99.00;;;;;;5068363;28;20415;-56
2021/06/07 08:12:54;;;;;;;26.47;24.17;;;24.70;98.80;;;;;;5068530;28;20413;-50
2021/06/07 08:15:19;;;;;;;25.63;23.33;;;24.60;97.70;;;;;;5068559;28;20201;-52
2021/06/07 08:17:45;;;;;;;27.40;24.93;;;24.30;98.10;;;;;;5068634;28;20458;-55
2021/06/07 08:20:15;;;;;;;27.53;25.13;;;24.30;98.20;;;;;;5069377;28;20197;-52
2021/06/07 08:22:41;;;;;;;25.87;23.47;;;24.40;97.80;;;;;;5067193;28;20181;-52
2021/06/07 08:25:08;;;;;;;24.50;22.30;;;24.30;99.10;;;;;;5068625;28;20438;-55
2021/06/07 08:27:33;;;;;;;26.00;23.60;;;24.40;98.10;;;;;;5068731;28;20449;-52
2021/06/07 08:29:59;;;;;;;25.30;23.10;;;24.40;97.40;;;;;;5067894;28;20895;-56
2021/06/07 08:32:25;;;;;;;24.53;22.40;;;24.40;98.20;;;;;;5068209;28;20628;-52
2021/06/07 08:34:50;;;;;;;25.30;23.03;;;24.50;98.40;;;;;;5068845;28;20172;-54
2021/06/07 08:37:16;;;;;;;26.10;23.70;;;24.70;97.60;;;;;;5067179;28;20631;-48
2021/06/07 08:39:41;;;;;;;24.80;22.70;;;24.70;97.10;;;;;;5066755;28;20575;-51
2021/06/07 08:42:10;;;;;;;26.00;23.70;;;24.60;98.00;;;;;;5068788;28;20201;-52
2021/06/07 08:44:35;;;;;;;26.43;23.90;;;24.70;97.40;;;;;;5067786;28;20185;-51
2021/06/07 08:47:01;;;;;;;24.27;22.07;;;24.70;96.70;;;;;;5068612;28;20572;-50
2021/06/07 08:49:26;;;;;;;25.03;22.83;;;24.70;96.80;;;;;;5065931;28;20176;-54
2021/06/07 08:51:52;;;;;;;25.43;23.03;;;24.70;96.60;;;;;;5066361;28;20193;-54
2021/06/07 08:54:18;;;;;;;24.40;22.27;;;24.80;96.80;;;;;;5068076;28;20181;-55
2021/06/07 08:56:44;;;;;;;25.20;22.80;;;25.00;97.20;;;;;;5068702;28;20182;-54
2021/06/07 08:59:11;;;;;;;24.93;22.83;;;25.20;96.40;;;;;;5068003;28;20192;-54
2021/06/07 09:01:37;;;;;;;26.00;23.90;;;25.30;95.30;;;;;;5066760;28;20228;-55
2021/06/07 09:04:17;;;;;;;24.07;21.97;;;25.50;94.20;;;;;;5067993;28;20491;-54
2021/06/07 09:06:46;;;;;;;25.37;23.27;;;25.40;94.80;;;;;;5067760;28;21157;-53
2021/06/07 09:09:13;;;;;;;23.77;21.57;;;25.60;94.90;;;;;;5067059;28;20933;-51
2021/06/07 09:11:47;;;;;;;24.27;22.07;;;25.70;94.70;;;;;;5067878;28;20442;-54
2021/06/07 09:14:17;;;;;;;22.87;20.77;;;26.20;93.10;;;;;;5065794;28;20812;-54
2021/06/07 09:16:43;;;;;;;24.60;22.50;;;26.40;93.00;;;;;;5066737;28;21200;-52
2021/06/07 09:19:20;;;;;;;24.87;22.77;;;26.60;91.60;;;;;;5067819;28;20450;-54
2021/06/07 09:21:46;;;;;;;25.60;23.30;;;26.20;91.40;;;;;;5068176;28;20184;-52
2021/06/07 09:24:14;;;;;;;24.50;22.50;;;26.20;91.50;;;;;;5069313;28;20585;-53
2021/06/07 09:26:42;;;;;;;24.27;22.27;;;26.30;90.90;;;;;;5071386;28;20518;-54
2021/06/07 09:29:28;;;;;;;23.57;21.47;;;26.90;89.50;;;;;;5071373;28;20775;-54
2021/06/07 09:31:56;;;;;;;23.43;21.47;;;27.40;86.20;;;;;;5068826;28;20491;-52
2021/06/07 09:34:35;;;;;;;22.97;21.07;;;27.50;81.60;;;;;;5071458;28;20506;-56
2021/06/07 09:37:10;;;;;;;21.87;19.97;;;27.60;79.20;;;;;;5069850;28;21376;-50
2021/06/07 09:39:37;;;;;;;24.47;22.47;;;27.90;74.90;;;;;;5071176;28;20960;-53
2021/06/07 09:42:13;;;;;;;23.40;21.50;;;28.00;76.40;;;;;;5071766;28;20477;-55
2021/06/07 09:44:49;;;;;;;21.87;20.17;;;28.40;76.90;;;;;;5070787;28;20858;-58
2021/06/07 09:47:19;;;;;;;22.77;20.97;;;28.80;78.10;;;;;;5069430;28;21232;-54
2021/06/07 09:49:58;;;;;;;22.63;20.73;;;29.40;70.70;;;;;;5071567;28;20816;-53
2021/06/07 09:52:32;;;;;;;22.87;20.97;;;30.40;64.80;;;;;;5070682;28;20487;-51
2021/06/07 09:55:03;;;;;;;22.67;20.90;;;30.90;62.30;;;;;;5071358;28;20530;-55
2021/06/07 09:57:56;;;;;;;22.67;20.87;;;31.30;58.60;;;;;;5067147;28;20496;-55
2021/06/07 10:00:49;;;;;;;22.00;20.17;;;31.40;58.60;;;;;;5069349;28;20883;-51
2021/06/07 10:03:32;;;;;;;23.53;21.73;;;31.70;57.70;;;;;;5069310;28;20471;-56
2021/06/07 10:05:58;;;;;;;23.37;21.17;;;32.00;56.70;;;;;;5070424;28;20459;-53
2021/06/07 10:08:26;;;;;;;24.00;22.30;;;32.70;54.40;;;;;;5070975;28;20451;-53
2021/06/07 10:10:54;;;;;;;23.20;21.37;;;32.80;49.40;;;;;;5065643;28;20459;-55
2021/06/07 10:13:20;;;;;;;23.03;21.27;;;32.90;48.10;;;;;;5069291;28;20423;-51
2021/06/07 10:15:48;;;;;;;23.47;21.57;;;32.90;48.50;;;;;;5070655;28;20795;-55
2021/06/07 10:18:19;;;;;;;24.53;22.70;;;32.50;48.60;;;;;;5069184;28;20432;-54
2021/06/07 10:20:47;;;;;;;22.10;20.50;;;32.50;49.80;;;;;;5070313;28;20423;-49
2021/06/07 10:23:23;;;;;;;22.00;20.40;;;32.60;49.60;;;;;;5070019;28;20501;-52
2021/06/07 10:25:51;;;;;;;22.73;21.03;;;32.80;50.20;;;;;;5068305;28;20826;-56
2021/06/07 10:28:22;;;;;;;20.97;19.47;;;33.20;50.50;;;;;;5070225;28;20466;-52
2021/06/07 10:30:47;;;;;;;20.80;19.20;;;33.70;47.50;;;;;;5069795;28;20423;-54
2021/06/07 10:33:23;;;;;;;19.87;18.47;;;34.20;46.80;;;;;;5054688;28;20426;-55
2021/06/07 10:35:48;;;;;;;20.27;18.67;;;34.70;43.90;;;;;;5066846;28;20523;-54
2021/06/07 10:38:14;;;;;;;23.77;22.07;;;34.60;44.00;;;;;;5069664;28;20407;-53
2021/06/07 10:40:43;;;;;;;21.60;20.17;;;34.80;42.60;;;;;;5069185;28;20184;-53
2021/06/07 10:43:11;;;;;;;23.97;22.17;;;34.90;42.20;;;;;;5066078;28;20193;-55
2021/06/07 10:45:41;;;;;;;22.37;20.77;;;34.30;41.50;;;;;;5069244;28;20440;-55
2021/06/07 10:48:09;;;;;;;21.27;19.87;;;34.00;43.00;;;;;;5067128;28;20869;-52
2021/06/07 10:50:40;;;;;;;22.43;20.60;;;34.30;44.60;;;;;;5067248;28;20449;-50
2021/06/07 10:53:06;;;;;;;20.83;19.43;;;34.80;44.00;;;;;;5068174;28;20419;-50
2021/06/07 10:55:41;;;;;;;22.00;20.40;;;34.90;42.20;;;;;;5068740;28;20518;-54
2021/06/07 10:58:07;;;;;;;21.90;20.40;;;35.60;40.70;;;;;;5068835;28;20422;-50
2021/06/07 11:00:39;;;;;;;21.83;20.33;;;36.20;38.10;;;;;;5067833;28;20462;-49
2021/06/07 11:03:36;;;;;;;20.40;19.00;;;36.20;38.50;;;;;;5066748;28;20472;-48
2021/06/07 11:06:04;;;;;;;21.43;19.83;;;36.60;37.60;;;;;;5064059;28;20435;-52
2021/06/07 11:08:37;;;;;;;20.70;19.40;;;36.40;37.10;;;;;;5065832;28;20435;-52
2021/06/07 11:11:09;;;;;;;20.07;18.77;;;36.20;38.20;;;;;;5065260;28;20442;-51
2021/06/07 11:13:48;;;;;;;22.00;20.50;;;35.70;38.50;;;;;;5067108;28;20425;-54
2021/06/07 11:16:30;;;;;;;21.90;20.40;;;35.90;37.90;;;;;;5067798;28;20434;-52
2021/06/07 11:18:59;;;;;;;19.80;18.53;;;35.90;38.70;;;;;;5068384;28;20465;-49
2021/06/07 11:21:28;;;;;;;23.20;21.43;;;35.90;38.50;;;;;;5066160;28;21016;-50
2021/06/07 11:23:54;;;;;;;21.33;19.93;;;35.60;36.50;;;;;;5078008;28;20495;-50
2021/06/07 11:26:33;;;;;;;19.67;18.37;;;35.40;38.60;;;;;;5066436;28;20528;-54
2021/06/07 11:29:02;;;;;;;22.13;20.63;;;35.50;39.00;;;;;;5068189;28;20524;-50
2021/06/07 11:31:33;;;;;;;21.13;19.70;;;35.80;37.90;;;;;;5067441;28;20415;-49
2021/06/07 11:34:05;;;;;;;23.47;21.87;;;35.80;37.20;;;;;;5067142;28;20928;-53
2021/06/07 11:36:44;;;;;;;20.10;18.80;;;35.50;36.60;;;;;;5066883;28;20446;-53
2021/06/07 11:39:19;;;;;;;22.67;20.97;;;35.70;38.40;;;;;;5066583;28;20423;-51
2021/06/07 11:41:48;;;;;;;20.53;19.13;;;35.80;36.20;;;;;;5068349;28;20407;-47
2021/06/07 11:44:16;;;;;;;21.40;19.90;;;35.90;36.90;;;;;;5068087;28;20986;-50
2021/06/07 11:46:41;;;;;;;20.97;19.47;;;35.80;35.40;;;;;;5067031;28;20785;-53
2021/06/07 11:49:12;;;;;;;19.57;18.27;;;35.60;36.50;;;;;;5067293;28;20427;-51
2021/06/07 11:51:38;;;;;;;20.93;19.53;;;35.80;35.30;;;;;;5064983;28;20181;-50
2021/06/07 11:54:25;;;;;;;19.73;18.43;;;35.40;36.50;;;;;;5059831;28;20423;-54
2021/06/07 11:56:59;;;;;;;18.53;17.33;;;35.40;37.60;;;;;;5066848;28;20791;-51
2021/06/07 11:59:30;;;;;;;19.00;17.73;;;35.50;37.20;;;;;;5068515;28;20490;-55
2021/06/07 12:01:55;;;;;;;20.37;18.97;;;36.20;36.40;;;;;;5068945;28;20423;-50
2021/06/07 12:04:33;;;;;;;18.97;17.77;;;36.40;35.00;;;;;;5066541;28;20494;-47
2021/06/07 12:07:04;;;;;;;18.20;17.00;;;36.70;34.40;;;;;;5068595;28;20165;-47
2021/06/07 12:09:31;;;;;;;19.57;18.37;;;36.70;34.40;;;;;;5065095;28;20529;-52
2021/06/07 12:11:57;;;;;;;19.50;18.20;;;36.90;34.50;;;;;;5066536;28;20469;-49
2021/06/07 12:14:40;;;;;;;19.50;18.30;;;37.10;33.60;;;;;;5066945;28;20431;-49
2021/06/07 12:17:18;;;;;;;19.97;18.67;;;37.70;33.30;;;;;;5064681;28;20836;-53
2021/06/07 12:19:58;;;;;;;19.67;18.27;;;37.70;31.40;;;;;;5064901;28;20420;-50
2021/06/07 12:22:34;;;;;;;18.27;17.17;;;37.80;30.80;;;;;;5067252;28;20473;-49
2021/06/07 12:30:32;;;;;;;17.63;16.60;;;38.20;31.90;;;;;;5068280;28;20403;-53
2021/06/07 12:32:57;;;;;;;16.87;15.97;;;38.80;29.40;;;;;;5067009;28;20458;-54
2021/06/07 12:35:24;;;;;;;17.07;16.07;;;39.50;28.60;;;;;;5068088;28;20412;-51
2021/06/07 12:37:57;;;;;;;18.20;17.10;;;39.60;29.30;;;;;;5067921;28;20215;-52